sensor_id;sensor_type;location;lat;lon;timestamp;P1;durP1;ratioP1;P2;durP2;ratioP2
20154;SDS011;10238;49.556;10.956;2023-03-01T00:00:35;17.42;;;9.27;;
20154;SDS011;10238;49.556;10.956;2023-03-01T00:03:23;14.52;;;9.68;;
20154;SDS011;10238;49.556;10.956;2023-03-01T00:06:11;17.17;;;9.45;;
20154;SDS011;10238;49.556;10.956;2023-03-01T00:08:59;15.95;;;8.82;;
20154;SDS011;10238;49.556;10.956;2023-03-01T00:11:49;17.38;;;8.93;;
20154;SDS011;10238;49.556;10.956;2023-03-01T00:14:37;17.75;;;9.60;;
20154;SDS011;10238;49.556;10.956;2023-03-01T00:17:25;16.83;;;10.18;;
20154;SDS011;10238;49.556;10.956;2023-03-01T00:20:14;14.02;;;8.73;;
20154;SDS011;10238;49.556;10.956;2023-03-01T00:23:02;16.15;;;9.90;;
20154;SDS011;10238;49.556;10.956;2023-03-01T00:25:50;19.23;;;9.27;;
20154;SDS011;10238;49.556;10.956;2023-03-01T00:28:40;17.23;;;8.65;;
20154;SDS011;10238;49.556;10.956;2023-03-01T00:31:28;17.60;;;9.73;;
20154;SDS011;10238;49.556;10.956;2023-03-01T00:34:17;20.65;;;10.20;;
20154;SDS011;10238;49.556;10.956;2023-03-01T00:37:05;16.27;;;9.18;;
20154;SDS011;10238;49.556;10.956;2023-03-01T00:39:53;19.77;;;9.23;;
20154;SDS011;10238;49.556;10.956;2023-03-01T00:42:41;14.95;;;9.18;;
20154;SDS011;10238;49.556;10.956;2023-03-01T00:45:30;16.55;;;9.52;;
20154;SDS011;10238;49.556;10.956;2023-03-01T00:48:19;17.63;;;9.43;;
20154;SDS011;10238;49.556;10.956;2023-03-01T00:51:08;15.20;;;8.73;;
20154;SDS011;10238;49.556;10.956;2023-03-01T00:53:58;15.82;;;8.70;;
20154;SDS011;10238;49.556;10.956;2023-03-01T00:56:49;16.52;;;9.60;;
20154;SDS011;10238;49.556;10.956;2023-03-01T00:59:37;16.73;;;9.18;;
20154;SDS011;10238;49.556;10.956;2023-03-01T01:02:26;14.63;;;9.02;;
20154;SDS011;10238;49.556;10.956;2023-03-01T01:05:14;16.33;;;9.35;;
20154;SDS011;10238;49.556;10.956;2023-03-01T01:08:06;14.98;;;8.50;;
20154;SDS011;10238;49.556;10.956;2023-03-01T01:10:54;17.63;;;9.32;;
20154;SDS011;10238;49.556;10.956;2023-03-01T01:13:43;18.48;;;8.88;;
20154;SDS011;10238;49.556;10.956;2023-03-01T01:16:31;13.25;;;8.68;;
20154;SDS011;10238;49.556;10.956;2023-03-01T01:19:21;12.90;;;8.60;;
20154;SDS011;10238;49.556;10.956;2023-03-01T01:22:09;15.32;;;9.13;;
20154;SDS011;10238;49.556;10.956;2023-03-01T01:24:57;16.17;;;8.57;;
20154;SDS011;10238;49.556;10.956;2023-03-01T01:27:45;14.55;;;8.65;;
20154;SDS011;10238;49.556;10.956;2023-03-01T01:30:33;14.20;;;8.50;;
20154;SDS011;10238;49.556;10.956;2023-03-01T01:33:21;15.43;;;8.88;;
20154;SDS011;10238;49.556;10.956;2023-03-01T01:36:10;14.88;;;8.45;;
20154;SDS011;10238;49.556;10.956;2023-03-01T01:38:59;17.85;;;8.70;;
20154;SDS011;10238;49.556;10.956;2023-03-01T01:41:47;12.20;;;8.20;;
20154;SDS011;10238;49.556;10.956;2023-03-01T01:44:35;15.82;;;8.77;;
20154;SDS011;10238;49.556;10.956;2023-03-01T01:47:23;15.45;;;9.02;;
20154;SDS011;10238;49.556;10.956;2023-03-01T01:50:11;14.15;;;8.85;;
20154;SDS011;10238;49.556;10.956;2023-03-01T01:53:09;16.58;;;8.88;;
20154;SDS011;10238;49.556;10.956;2023-03-01T01:56:01;16.52;;;8.57;;
20154;SDS011;10238;49.556;10.956;2023-03-01T01:58:52;15.50;;;8.40;;
20154;SDS011;10238;49.556;10.956;2023-03-01T02:01:42;17.75;;;9.45;;
20154;SDS011;10238;49.556;10.956;2023-03-01T02:04:30;17.02;;;8.98;;
20154;SDS011;10238;49.556;10.956;2023-03-01T02:07:19;14.70;;;8.48;;
20154;SDS011;10238;49.556;10.956;2023-03-01T02:10:12;19.58;;;9.25;;
20154;SDS011;10238;49.556;10.956;2023-03-01T02:13:00;14.10;;;8.25;;
20154;SDS011;10238;49.556;10.956;2023-03-01T02:15:49;19.92;;;10.30;;
20154;SDS011;10238;49.556;10.956;2023-03-01T02:18:37;15.48;;;8.40;;
20154;SDS011;10238;49.556;10.956;2023-03-01T02:21:30;16.65;;;8.50;;
20154;SDS011;10238;49.556;10.956;2023-03-01T02:24:27;15.52;;;8.63;;
20154;SDS011;10238;49.556;10.956;2023-03-01T02:27:23;18.98;;;10.55;;
20154;SDS011;10238;49.556;10.956;2023-03-01T02:30:21;15.90;;;8.32;;
20154;SDS011;10238;49.556;10.956;2023-03-01T02:33:11;12.73;;;8.52;;
20154;SDS011;10238;49.556;10.956;2023-03-01T02:35:58;14.27;;;8.73;;
20154;SDS011;10238;49.556;10.956;2023-03-01T02:38:48;16.50;;;8.68;;
20154;SDS011;10238;49.556;10.956;2023-03-01T02:41:41;13.32;;;8.13;;
20154;SDS011;10238;49.556;10.956;2023-03-01T02:44:32;13.98;;;8.25;;
20154;SDS011;10238;49.556;10.956;2023-03-01T02:47:21;14.73;;;8.80;;
20154;SDS011;10238;49.556;10.956;2023-03-01T02:50:12;15.57;;;9.23;;
20154;SDS011;10238;49.556;10.956;2023-03-01T02:53:11;14.25;;;7.90;;
20154;SDS011;10238;49.556;10.956;2023-03-01T02:56:08;16.88;;;9.13;;
20154;SDS011;10238;49.556;10.956;2023-03-01T02:58:58;15.70;;;8.40;;
20154;SDS011;10238;49.556;10.956;2023-03-01T03:01:47;15.30;;;8.38;;
20154;SDS011;10238;49.556;10.956;2023-03-01T03:04:37;15.00;;;8.52;;
20154;SDS011;10238;49.556;10.956;2023-03-01T03:07:24;18.70;;;9.27;;
20154;SDS011;10238;49.556;10.956;2023-03-01T03:10:14;16.27;;;8.82;;
20154;SDS011;10238;49.556;10.956;2023-03-01T03:13:07;15.43;;;8.45;;
20154;SDS011;10238;49.556;10.956;2023-03-01T03:15:57;15.88;;;8.65;;
20154;SDS011;10238;49.556;10.956;2023-03-01T03:18:45;14.90;;;8.68;;
20154;SDS011;10238;49.556;10.956;2023-03-01T03:21:35;15.43;;;9.43;;
20154;SDS011;10238;49.556;10.956;2023-03-01T03:24:23;19.08;;;10.35;;
20154;SDS011;10238;49.556;10.956;2023-03-01T03:27:11;16.15;;;9.23;;
20154;SDS011;10238;49.556;10.956;2023-03-01T03:29:59;19.58;;;8.57;;
20154;SDS011;10238;49.556;10.956;2023-03-01T03:32:47;14.10;;;8.10;;
20154;SDS011;10238;49.556;10.956;2023-03-01T03:35:39;25.25;;;11.68;;
20154;SDS011;10238;49.556;10.956;2023-03-01T03:38:31;15.60;;;9.25;;
20154;SDS011;10238;49.556;10.956;2023-03-01T03:41:19;18.55;;;9.73;;
20154;SDS011;10238;49.556;10.956;2023-03-01T03:44:06;21.25;;;10.07;;
20154;SDS011;10238;49.556;10.956;2023-03-01T03:46:54;20.38;;;9.50;;
20154;SDS011;10238;49.556;10.956;2023-03-01T03:49:42;17.10;;;9.73;;
20154;SDS011;10238;49.556;10.956;2023-03-01T03:52:30;16.25;;;9.52;;
20154;SDS011;10238;49.556;10.956;2023-03-01T03:55:19;18.83;;;9.38;;
20154;SDS011;10238;49.556;10.956;2023-03-01T03:58:08;18.60;;;8.60;;
20154;SDS011;10238;49.556;10.956;2023-03-01T04:00:57;18.83;;;8.90;;
20154;SDS011;10238;49.556;10.956;2023-03-01T04:03:46;13.73;;;8.23;;
20154;SDS011;10238;49.556;10.956;2023-03-01T04:06:34;18.73;;;9.48;;
20154;SDS011;10238;49.556;10.956;2023-03-01T04:09:22;19.65;;;10.88;;
20154;SDS011;10238;49.556;10.956;2023-03-01T04:12:11;20.60;;;11.32;;
20154;SDS011;10238;49.556;10.956;2023-03-01T04:14:59;17.88;;;10.32;;
20154;SDS011;10238;49.556;10.956;2023-03-01T04:17:47;20.60;;;9.95;;
20154;SDS011;10238;49.556;10.956;2023-03-01T04:20:35;17.40;;;8.93;;
20154;SDS011;10238;49.556;10.956;2023-03-01T04:23:23;17.73;;;9.52;;
20154;SDS011;10238;49.556;10.956;2023-03-01T04:26:11;17.10;;;8.75;;
20154;SDS011;10238;49.556;10.956;2023-03-01T04:29:01;17.77;;;9.25;;
20154;SDS011;10238;49.556;10.956;2023-03-01T04:31:49;21.27;;;10.85;;
20154;SDS011;10238;49.556;10.956;2023-03-01T04:34:37;19.98;;;10.80;;
20154;SDS011;10238;49.556;10.956;2023-03-01T04:37:25;15.27;;;9.15;;
20154;SDS011;10238;49.556;10.956;2023-03-01T04:40:13;17.85;;;8.85;;
20154;SDS011;10238;49.556;10.956;2023-03-01T04:43:03;26.83;;;11.45;;
20154;SDS011;10238;49.556;10.956;2023-03-01T04:45:52;17.35;;;9.50;;
20154;SDS011;10238;49.556;10.956;2023-03-01T04:48:40;20.35;;;10.65;;
20154;SDS011;10238;49.556;10.956;2023-03-01T04:51:29;22.10;;;10.65;;
20154;SDS011;10238;49.556;10.956;2023-03-01T04:54:18;15.13;;;9.10;;
20154;SDS011;10238;49.556;10.956;2023-03-01T04:57:06;16.52;;;9.43;;
20154;SDS011;10238;49.556;10.956;2023-03-01T04:59:54;16.25;;;9.20;;
20154;SDS011;10238;49.556;10.956;2023-03-01T05:02:43;18.63;;;9.13;;
20154;SDS011;10238;49.556;10.956;2023-03-01T05:05:33;13.75;;;8.82;;
20154;SDS011;10238;49.556;10.956;2023-03-01T05:08:21;18.70;;;9.80;;
20154;SDS011;10238;49.556;10.956;2023-03-01T05:11:09;19.60;;;10.05;;
20154;SDS011;10238;49.556;10.956;2023-03-01T05:13:58;23.00;;;10.80;;
20154;SDS011;10238;49.556;10.956;2023-03-01T05:16:46;22.63;;;11.85;;
20154;SDS011;10238;49.556;10.956;2023-03-01T05:19:36;17.88;;;8.98;;
20154;SDS011;10238;49.556;10.956;2023-03-01T05:22:23;19.73;;;9.52;;
20154;SDS011;10238;49.556;10.956;2023-03-01T05:25:13;20.92;;;11.88;;
20154;SDS011;10238;49.556;10.956;2023-03-01T05:28:01;16.63;;;8.60;;
20154;SDS011;10238;49.556;10.956;2023-03-01T05:30:50;20.80;;;10.30;;
20154;SDS011;10238;49.556;10.956;2023-03-01T05:33:38;20.42;;;9.80;;
20154;SDS011;10238;49.556;10.956;2023-03-01T05:36:28;21.58;;;10.65;;
20154;SDS011;10238;49.556;10.956;2023-03-01T05:39:17;16.73;;;9.73;;
20154;SDS011;10238;49.556;10.956;2023-03-01T05:42:05;19.02;;;10.10;;
20154;SDS011;10238;49.556;10.956;2023-03-01T05:44:54;18.15;;;9.63;;
20154;SDS011;10238;49.556;10.956;2023-03-01T05:47:43;20.45;;;9.68;;
20154;SDS011;10238;49.556;10.956;2023-03-01T05:50:33;19.40;;;9.73;;
20154;SDS011;10238;49.556;10.956;2023-03-01T05:53:23;15.10;;;8.57;;
20154;SDS011;10238;49.556;10.956;2023-03-01T05:56:12;20.10;;;9.80;;
20154;SDS011;10238;49.556;10.956;2023-03-01T05:59:00;22.27;;;9.93;;
20154;SDS011;10238;49.556;10.956;2023-03-01T06:01:50;16.77;;;9.15;;
20154;SDS011;10238;49.556;10.956;2023-03-01T06:04:39;16.27;;;9.38;;
20154;SDS011;10238;49.556;10.956;2023-03-01T06:07:27;19.48;;;9.75;;
20154;SDS011;10238;49.556;10.956;2023-03-01T06:10:17;14.95;;;9.77;;
20154;SDS011;10238;49.556;10.956;2023-03-01T06:13:06;19.05;;;10.07;;
20154;SDS011;10238;49.556;10.956;2023-03-01T06:15:54;17.95;;;10.38;;
20154;SDS011;10238;49.556;10.956;2023-03-01T06:18:42;20.25;;;11.25;;
20154;SDS011;10238;49.556;10.956;2023-03-01T06:21:30;26.02;;;11.70;;
20154;SDS011;10238;49.556;10.956;2023-03-01T06:24:18;21.60;;;10.68;;
20154;SDS011;10238;49.556;10.956;2023-03-01T06:27:07;23.65;;;11.50;;
20154;SDS011;10238;49.556;10.956;2023-03-01T06:29:55;29.95;;;13.25;;
20154;SDS011;10238;49.556;10.956;2023-03-01T06:32:44;24.83;;;12.70;;
20154;SDS011;10238;49.556;10.956;2023-03-01T06:35:31;24.05;;;12.77;;
20154;SDS011;10238;49.556;10.956;2023-03-01T06:38:20;29.50;;;12.95;;
20154;SDS011;10238;49.556;10.956;2023-03-01T06:41:08;19.33;;;11.30;;
20154;SDS011;10238;49.556;10.956;2023-03-01T06:43:57;27.23;;;13.32;;
20154;SDS011;10238;49.556;10.956;2023-03-01T06:46:46;17.58;;;10.27;;
20154;SDS011;10238;49.556;10.956;2023-03-01T06:49:34;21.73;;;10.57;;
20154;SDS011;10238;49.556;10.956;2023-03-01T06:52:22;23.95;;;12.05;;
20154;SDS011;10238;49.556;10.956;2023-03-01T06:55:09;23.00;;;11.88;;
20154;SDS011;10238;49.556;10.956;2023-03-01T06:57:58;27.10;;;13.80;;
20154;SDS011;10238;49.556;10.956;2023-03-01T07:00:48;28.70;;;13.40;;
20154;SDS011;10238;49.556;10.956;2023-03-01T07:03:35;25.90;;;12.73;;
20154;SDS011;10238;49.556;10.956;2023-03-01T07:06:25;20.83;;;11.75;;
20154;SDS011;10238;49.556;10.956;2023-03-01T07:09:14;27.50;;;12.40;;
20154;SDS011;10238;49.556;10.956;2023-03-01T07:12:09;27.85;;;13.98;;
20154;SDS011;10238;49.556;10.956;2023-03-01T07:15:20;27.80;;;12.32;;
20154;SDS011;10238;49.556;10.956;2023-03-01T07:18:09;21.80;;;12.02;;
20154;SDS011;10238;49.556;10.956;2023-03-01T07:20:59;25.67;;;12.73;;
20154;SDS011;10238;49.556;10.956;2023-03-01T07:23:51;27.42;;;13.77;;
20154;SDS011;10238;49.556;10.956;2023-03-01T07:26:39;31.77;;;14.95;;
20154;SDS011;10238;49.556;10.956;2023-03-01T07:29:27;25.20;;;13.30;;
20154;SDS011;10238;49.556;10.956;2023-03-01T07:32:15;28.10;;;13.23;;
20154;SDS011;10238;49.556;10.956;2023-03-01T07:35:05;31.98;;;15.07;;
20154;SDS011;10238;49.556;10.956;2023-03-01T07:37:53;27.88;;;14.02;;
20154;SDS011;10238;49.556;10.956;2023-03-01T07:40:41;21.98;;;12.07;;
20154;SDS011;10238;49.556;10.956;2023-03-01T07:43:29;25.27;;;13.02;;
20154;SDS011;10238;49.556;10.956;2023-03-01T07:46:19;28.20;;;14.05;;
20154;SDS011;10238;49.556;10.956;2023-03-01T07:49:07;28.08;;;13.80;;
20154;SDS011;10238;49.556;10.956;2023-03-01T07:51:57;29.10;;;14.38;;
20154;SDS011;10238;49.556;10.956;2023-03-01T07:54:45;23.50;;;12.52;;
20154;SDS011;10238;49.556;10.956;2023-03-01T07:57:33;26.85;;;13.25;;
20154;SDS011;10238;49.556;10.956;2023-03-01T08:00:21;26.35;;;13.73;;
20154;SDS011;10238;49.556;10.956;2023-03-01T08:03:10;25.20;;;13.52;;
20154;SDS011;10238;49.556;10.956;2023-03-01T08:05:59;24.05;;;12.65;;
20154;SDS011;10238;49.556;10.956;2023-03-01T08:08:49;26.20;;;12.55;;
20154;SDS011;10238;49.556;10.956;2023-03-01T08:11:38;25.80;;;13.45;;
20154;SDS011;10238;49.556;10.956;2023-03-01T08:14:26;26.17;;;12.70;;
20154;SDS011;10238;49.556;10.956;2023-03-01T08:17:14;31.15;;;14.35;;
20154;SDS011;10238;49.556;10.956;2023-03-01T08:20:02;28.17;;;13.23;;
20154;SDS011;10238;49.556;10.956;2023-03-01T08:22:52;25.77;;;13.10;;
20154;SDS011;10238;49.556;10.956;2023-03-01T08:25:42;30.75;;;13.25;;
20154;SDS011;10238;49.556;10.956;2023-03-01T08:28:30;27.95;;;15.32;;
20154;SDS011;10238;49.556;10.956;2023-03-01T08:31:21;24.60;;;13.57;;
20154;SDS011;10238;49.556;10.956;2023-03-01T08:34:11;27.48;;;14.23;;
20154;SDS011;10238;49.556;10.956;2023-03-01T08:37:01;26.23;;;14.88;;
20154;SDS011;10238;49.556;10.956;2023-03-01T08:39:49;24.40;;;12.82;;
20154;SDS011;10238;49.556;10.956;2023-03-01T08:42:38;25.75;;;14.00;;
20154;SDS011;10238;49.556;10.956;2023-03-01T08:45:28;32.17;;;13.98;;
20154;SDS011;10238;49.556;10.956;2023-03-01T08:48:17;24.50;;;12.77;;
20154;SDS011;10238;49.556;10.956;2023-03-01T08:51:08;25.48;;;12.88;;
20154;SDS011;10238;49.556;10.956;2023-03-01T08:53:56;25.65;;;13.85;;
20154;SDS011;10238;49.556;10.956;2023-03-01T08:56:45;25.25;;;12.77;;
20154;SDS011;10238;49.556;10.956;2023-03-01T08:59:34;24.50;;;13.85;;
20154;SDS011;10238;49.556;10.956;2023-03-01T09:02:22;24.60;;;12.85;;
20154;SDS011;10238;49.556;10.956;2023-03-01T09:05:11;24.67;;;12.88;;
20154;SDS011;10238;49.556;10.956;2023-03-01T09:07:59;25.15;;;13.55;;
20154;SDS011;10238;49.556;10.956;2023-03-01T09:10:47;24.85;;;12.13;;
20154;SDS011;10238;49.556;10.956;2023-03-01T09:13:35;24.80;;;13.32;;
20154;SDS011;10238;49.556;10.956;2023-03-01T09:16:25;26.10;;;13.82;;
20154;SDS011;10238;49.556;10.956;2023-03-01T09:19:15;28.25;;;13.20;;
20154;SDS011;10238;49.556;10.956;2023-03-01T09:22:04;24.10;;;12.73;;
20154;SDS011;10238;49.556;10.956;2023-03-01T09:24:52;24.95;;;12.95;;
20154;SDS011;10238;49.556;10.956;2023-03-01T09:27:40;24.25;;;12.82;;
20154;SDS011;10238;49.556;10.956;2023-03-01T09:30:28;23.73;;;13.02;;
20154;SDS011;10238;49.556;10.956;2023-03-01T09:33:18;24.45;;;12.50;;
20154;SDS011;10238;49.556;10.956;2023-03-01T09:36:07;21.65;;;12.88;;
20154;SDS011;10238;49.556;10.956;2023-03-01T09:38:57;24.63;;;12.85;;
20154;SDS011;10238;49.556;10.956;2023-03-01T09:41:47;26.50;;;12.95;;
20154;SDS011;10238;49.556;10.956;2023-03-01T09:44:42;26.25;;;12.43;;
20154;SDS011;10238;49.556;10.956;2023-03-01T09:47:36;22.50;;;11.75;;
20154;SDS011;10238;49.556;10.956;2023-03-01T09:50:28;27.83;;;12.90;;
20154;SDS011;10238;49.556;10.956;2023-03-01T09:53:20;23.10;;;13.18;;
20154;SDS011;10238;49.556;10.956;2023-03-01T09:56:15;22.88;;;12.88;;
20154;SDS011;10238;49.556;10.956;2023-03-01T09:59:11;23.55;;;12.02;;
20154;SDS011;10238;49.556;10.956;2023-03-01T10:02:14;22.63;;;12.38;;
20154;SDS011;10238;49.556;10.956;2023-03-01T10:05:27;22.17;;;12.13;;
20154;SDS011;10238;49.556;10.956;2023-03-01T10:11:38;20.75;;;12.18;;
20154;SDS011;10238;49.556;10.956;2023-03-01T10:14:32;19.63;;;11.00;;
20154;SDS011;10238;49.556;10.956;2023-03-01T10:17:28;20.45;;;11.70;;
20154;SDS011;10238;49.556;10.956;2023-03-01T10:20:22;20.30;;;12.57;;
20154;SDS011;10238;49.556;10.956;2023-03-01T10:23:12;20.48;;;11.73;;
20154;SDS011;10238;49.556;10.956;2023-03-01T10:26:09;24.80;;;12.73;;
20154;SDS011;10238;49.556;10.956;2023-03-01T10:29:07;24.80;;;12.57;;
20154;SDS011;10238;49.556;10.956;2023-03-01T10:31:56;24.33;;;12.43;;
20154;SDS011;10238;49.556;10.956;2023-03-01T10:34:44;22.27;;;12.98;;
20154;SDS011;10238;49.556;10.956;2023-03-01T10:37:32;26.52;;;12.80;;
20154;SDS011;10238;49.556;10.956;2023-03-01T10:40:21;22.27;;;12.00;;
20154;SDS011;10238;49.556;10.956;2023-03-01T10:43:10;21.40;;;11.55;;
20154;SDS011;10238;49.556;10.956;2023-03-01T10:45:59;20.67;;;12.55;;
20154;SDS011;10238;49.556;10.956;2023-03-01T10:48:50;21.90;;;12.70;;
20154;SDS011;10238;49.556;10.956;2023-03-01T10:51:54;21.08;;;11.93;;
20154;SDS011;10238;49.556;10.956;2023-03-01T10:54:42;20.95;;;11.38;;
20154;SDS011;10238;49.556;10.956;2023-03-01T10:57:41;23.40;;;13.52;;
20154;SDS011;10238;49.556;10.956;2023-03-01T11:00:29;20.48;;;11.93;;
20154;SDS011;10238;49.556;10.956;2023-03-01T11:03:19;17.15;;;10.93;;
20154;SDS011;10238;49.556;10.956;2023-03-01T11:06:20;20.17;;;11.68;;
20154;SDS011;10238;49.556;10.956;2023-03-01T11:09:15;19.00;;;12.45;;
20154;SDS011;10238;49.556;10.956;2023-03-01T11:12:11;20.73;;;13.10;;
20154;SDS011;10238;49.556;10.956;2023-03-01T11:15:03;20.92;;;12.30;;
20154;SDS011;10238;49.556;10.956;2023-03-01T11:17:52;18.08;;;11.38;;
20154;SDS011;10238;49.556;10.956;2023-03-01T11:20:58;21.55;;;11.88;;
20154;SDS011;10238;49.556;10.956;2023-03-01T11:23:48;16.55;;;10.27;;
20154;SDS011;10238;49.556;10.956;2023-03-01T11:26:36;18.73;;;11.90;;
20154;SDS011;10238;49.556;10.956;2023-03-01T11:29:27;17.40;;;10.65;;
20154;SDS011;10238;49.556;10.956;2023-03-01T11:32:34;13.40;;;10.50;;
20154;SDS011;10238;49.556;10.956;2023-03-01T11:35:27;16.25;;;10.93;;
20154;SDS011;10238;49.556;10.956;2023-03-01T11:38:21;17.88;;;11.80;;
20154;SDS011;10238;49.556;10.956;2023-03-01T11:41:12;14.95;;;10.57;;
20154;SDS011;10238;49.556;10.956;2023-03-01T11:44:03;14.95;;;9.73;;
20154;SDS011;10238;49.556;10.956;2023-03-01T11:47:12;15.80;;;9.35;;
20154;SDS011;10238;49.556;10.956;2023-03-01T11:50:18;17.55;;;9.57;;
20154;SDS011;10238;49.556;10.956;2023-03-01T11:53:21;14.57;;;10.05;;
20154;SDS011;10238;49.556;10.956;2023-03-01T11:56:23;14.80;;;9.80;;
20154;SDS011;10238;49.556;10.956;2023-03-01T11:59:22;13.77;;;9.05;;
20154;SDS011;10238;49.556;10.956;2023-03-01T12:05:51;12.73;;;8.73;;
20154;SDS011;10238;49.556;10.956;2023-03-01T12:09:02;17.05;;;9.57;;
20154;SDS011;10238;49.556;10.956;2023-03-01T12:12:11;13.13;;;10.27;;
20154;SDS011;10238;49.556;10.956;2023-03-01T12:15:28;17.70;;;13.13;;
20154;SDS011;10238;49.556;10.956;2023-03-01T12:18:38;14.02;;;10.75;;
20154;SDS011;10238;49.556;10.956;2023-03-01T12:21:44;16.98;;;11.52;;
20154;SDS011;10238;49.556;10.956;2023-03-01T12:24:54;17.42;;;11.02;;
20154;SDS011;10238;49.556;10.956;2023-03-01T12:28:14;14.75;;;10.90;;
20154;SDS011;10238;49.556;10.956;2023-03-01T12:31:31;17.05;;;10.65;;
20154;SDS011;10238;49.556;10.956;2023-03-01T12:34:51;13.50;;;9.73;;
20154;SDS011;10238;49.556;10.956;2023-03-01T12:37:55;15.38;;;10.70;;
20154;SDS011;10238;49.556;10.956;2023-03-01T12:40:58;12.18;;;9.70;;
20154;SDS011;10238;49.556;10.956;2023-03-01T12:44:08;13.45;;;9.50;;
20154;SDS011;10238;49.556;10.956;2023-03-01T12:47:10;16.50;;;10.15;;
20154;SDS011;10238;49.556;10.956;2023-03-01T12:53:02;15.63;;;9.88;;
20154;SDS011;10238;49.556;10.956;2023-03-01T12:55:50;12.48;;;8.77;;
20154;SDS011;10238;49.556;10.956;2023-03-01T12:58:41;14.02;;;10.95;;
20154;SDS011;10238;49.556;10.956;2023-03-01T13:01:45;13.65;;;10.32;;
20154;SDS011;10238;49.556;10.956;2023-03-01T13:04:53;13.63;;;10.63;;
20154;SDS011;10238;49.556;10.956;2023-03-01T13:07:50;17.45;;;11.50;;
20154;SDS011;10238;49.556;10.956;2023-03-01T13:10:48;15.60;;;10.30;;
20154;SDS011;10238;49.556;10.956;2023-03-01T13:13:39;12.90;;;9.85;;
20154;SDS011;10238;49.556;10.956;2023-03-01T13:16:39;13.65;;;11.82;;
20154;SDS011;10238;49.556;10.956;2023-03-01T13:19:30;13.82;;;9.32;;
20154;SDS011;10238;49.556;10.956;2023-03-01T13:22:25;13.57;;;12.18;;
20154;SDS011;10238;49.556;10.956;2023-03-01T13:25:17;16.60;;;11.55;;
20154;SDS011;10238;49.556;10.956;2023-03-01T13:34:50;13.13;;;9.23;;
20154;SDS011;10238;49.556;10.956;2023-03-01T13:37:40;13.85;;;9.63;;
20154;SDS011;10238;49.556;10.956;2023-03-01T13:43:47;13.52;;;10.25;;
20154;SDS011;10238;49.556;10.956;2023-03-01T13:46:35;15.35;;;10.30;;
20154;SDS011;10238;49.556;10.956;2023-03-01T13:49:23;14.32;;;8.98;;
20154;SDS011;10238;49.556;10.956;2023-03-01T13:52:35;14.55;;;8.73;;
20154;SDS011;10238;49.556;10.956;2023-03-01T13:55:32;15.82;;;10.70;;
20154;SDS011;10238;49.556;10.956;2023-03-01T13:58:28;15.65;;;10.82;;
20154;SDS011;10238;49.556;10.956;2023-03-01T14:01:25;16.83;;;10.50;;
20154;SDS011;10238;49.556;10.956;2023-03-01T14:04:19;14.57;;;10.52;;
20154;SDS011;10238;49.556;10.956;2023-03-01T14:07:11;12.52;;;10.02;;
20154;SDS011;10238;49.556;10.956;2023-03-01T14:10:04;15.98;;;10.13;;
20154;SDS011;10238;49.556;10.956;2023-03-01T14:12:55;13.15;;;10.05;;
20154;SDS011;10238;49.556;10.956;2023-03-01T14:16:08;11.88;;;9.35;;
20154;SDS011;10238;49.556;10.956;2023-03-01T14:19:15;15.00;;;9.32;;
20154;SDS011;10238;49.556;10.956;2023-03-01T14:25:17;17.10;;;11.05;;
20154;SDS011;10238;49.556;10.956;2023-03-01T14:28:13;15.18;;;10.40;;
20154;SDS011;10238;49.556;10.956;2023-03-01T14:34:38;17.45;;;11.15;;
20154;SDS011;10238;49.556;10.956;2023-03-01T14:37:33;16.38;;;10.63;;
20154;SDS011;10238;49.556;10.956;2023-03-01T14:40:23;18.70;;;11.70;;
20154;SDS011;10238;49.556;10.956;2023-03-01T14:43:14;16.02;;;10.32;;
20154;SDS011;10238;49.556;10.956;2023-03-01T14:46:16;17.65;;;10.27;;
20154;SDS011;10238;49.556;10.956;2023-03-01T14:49:09;13.43;;;9.75;;
20154;SDS011;10238;49.556;10.956;2023-03-01T14:52:02;13.48;;;10.45;;
20154;SDS011;10238;49.556;10.956;2023-03-01T14:54:53;12.07;;;9.27;;
20154;SDS011;10238;49.556;10.956;2023-03-01T14:57:44;16.50;;;10.60;;
20154;SDS011;10238;49.556;10.956;2023-03-01T15:00:38;16.27;;;11.15;;
20154;SDS011;10238;49.556;10.956;2023-03-01T15:03:35;16.40;;;10.23;;
20154;SDS011;10238;49.556;10.956;2023-03-01T15:06:26;16.52;;;11.07;;
20154;SDS011;10238;49.556;10.956;2023-03-01T15:09:17;15.52;;;9.77;;
20154;SDS011;10238;49.556;10.956;2023-03-01T15:12:25;14.40;;;10.07;;
20154;SDS011;10238;49.556;10.956;2023-03-01T15:18:33;15.07;;;9.77;;
20154;SDS011;10238;49.556;10.956;2023-03-01T15:21:23;14.32;;;10.30;;
20154;SDS011;10238;49.556;10.956;2023-03-01T15:24:17;16.10;;;9.82;;
20154;SDS011;10238;49.556;10.956;2023-03-01T15:27:13;13.77;;;9.40;;
20154;SDS011;10238;49.556;10.956;2023-03-01T15:30:04;12.13;;;8.93;;
20154;SDS011;10238;49.556;10.956;2023-03-01T15:39:27;12.82;;;8.65;;
20154;SDS011;10238;49.556;10.956;2023-03-01T15:42:36;13.55;;;9.13;;
20154;SDS011;10238;49.556;10.956;2023-03-01T15:45:26;15.67;;;10.00;;
20154;SDS011;10238;49.556;10.956;2023-03-01T15:48:17;14.43;;;9.45;;
20154;SDS011;10238;49.556;10.956;2023-03-01T15:51:09;12.90;;;8.38;;
20154;SDS011;10238;49.556;10.956;2023-03-01T15:54:02;14.15;;;9.02;;
20154;SDS011;10238;49.556;10.956;2023-03-01T15:56:55;13.43;;;8.88;;
20154;SDS011;10238;49.556;10.956;2023-03-01T15:59:45;14.07;;;9.75;;
20154;SDS011;10238;49.556;10.956;2023-03-01T16:02:35;13.43;;;9.30;;
20154;SDS011;10238;49.556;10.956;2023-03-01T16:05:26;13.57;;;8.02;;
20154;SDS011;10238;49.556;10.956;2023-03-01T16:08:16;15.60;;;10.60;;
20154;SDS011;10238;49.556;10.956;2023-03-01T16:11:05;15.02;;;10.48;;
20154;SDS011;10238;49.556;10.956;2023-03-01T16:14:02;11.18;;;8.18;;
20154;SDS011;10238;49.556;10.956;2023-03-01T16:16:50;13.63;;;8.98;;
20154;SDS011;10238;49.556;10.956;2023-03-01T16:19:38;14.93;;;9.07;;
20154;SDS011;10238;49.556;10.956;2023-03-01T16:22:26;14.00;;;9.15;;
20154;SDS011;10238;49.556;10.956;2023-03-01T16:25:15;12.05;;;8.88;;
20154;SDS011;10238;49.556;10.956;2023-03-01T16:28:05;14.80;;;9.60;;
20154;SDS011;10238;49.556;10.956;2023-03-01T16:30:57;15.52;;;9.52;;
20154;SDS011;10238;49.556;10.956;2023-03-01T16:33:47;15.02;;;9.02;;
20154;SDS011;10238;49.556;10.956;2023-03-01T16:36:37;16.67;;;10.10;;
20154;SDS011;10238;49.556;10.956;2023-03-01T16:39:25;14.75;;;10.80;;
20154;SDS011;10238;49.556;10.956;2023-03-01T16:42:12;14.98;;;10.07;;
20154;SDS011;10238;49.556;10.956;2023-03-01T16:45:02;13.73;;;9.40;;
20154;SDS011;10238;49.556;10.956;2023-03-01T16:48:10;12.90;;;9.13;;
20154;SDS011;10238;49.556;10.956;2023-03-01T16:50:59;16.70;;;10.43;;
20154;SDS011;10238;49.556;10.956;2023-03-01T16:53:47;16.60;;;10.43;;
20154;SDS011;10238;49.556;10.956;2023-03-01T16:56:36;15.63;;;10.00;;
20154;SDS011;10238;49.556;10.956;2023-03-01T16:59:24;17.83;;;9.77;;
20154;SDS011;10238;49.556;10.956;2023-03-01T17:02:15;17.90;;;14.88;;
20154;SDS011;10238;49.556;10.956;2023-03-01T17:05:07;15.98;;;12.60;;
20154;SDS011;10238;49.556;10.956;2023-03-01T17:07:56;17.17;;;12.20;;
20154;SDS011;10238;49.556;10.956;2023-03-01T17:10:45;18.85;;;10.30;;